Zweefvliegveld Noordkop

NL-0052 · Olanda Settentrionale, Paesi Bassi

Storia di METAR NL-0052 · Zweefvliegveld Noordkop

Di seguito sono riportati i METAR degli ultimi giorni. Seleziona un anno per sfogliare i METAR più vecchi, dall'anno 2007 in poi.

13 aprile 2024

Tempo Codice Tempo meteorologico Temp. Vista Base nuvolosa Vento METAR/SPECI
09:25
V
13 °C 10 km+ 22.000 ft 220° 220° 10 kt METAR EHKD 130725Z AUTO 22010KT 190V250 9999 OVC220 13/11 Q1023 BLU NOSIG
08:55
V
13 °C 10 km+ 23.000 ft 220° 220° 10 kt METAR EHKD 130655Z AUTO 22010KT 9999 OVC230 13/11 Q1023 BLU NOSIG
08:25
V
12 °C 10 km+ 18.000 ft 220° 220° 9 kt METAR EHKD 130625Z AUTO 22009KT 9999 OVC180 12/10 Q1023 BLU NOSIG
07:55
V
12 °C 10 km+ 22.000 ft 220° 220° 8 kt METAR EHKD 130555Z AUTO 22008KT 190V260 9999 BKN220 OVC270 12/10 Q1023 BLU NOSIG
07:25
V
11 °C 10 km+ 21.000 ft 220° 220° 9 kt METAR EHKD 130525Z AUTO 22009KT 9999 OVC210 11/10 Q1024 BLU NOSIG
06:55
V
12 °C 10 km+ 23.000 ft 230° 230° 10 kt METAR EHKD 130455Z AUTO 23010KT 180V270 9999 OVC230 12/10 Q1024 BLU NOSIG
06:26
V
12 °C 10 km+ 23.000 ft 230° 230° 10 kt METAR EHKD 130426Z AUTO 23010KT 200V260 9999 OVC230 12/10 Q1024 BLU NOSIG
06:25
V
12 °C 10 km+ 24.000 ft 230° 230° 10 kt METAR EHKD 130425Z AUTO 23010KT 200V270 9999 OVC240 12/10 Q1024 BLU
05:55
V
11 °C 10 km+ 24.000 ft 230° 230° 9 kt METAR EHKD 130355Z AUTO 23009KT 9999 OVC240 11/10 Q1024 BLU
05:25
V
11 °C 10 km+ 28.000 ft 230° 230° 9 kt METAR EHKD 130325Z AUTO 23009KT 9999 OVC280 11/09 Q1024 BLU
04:55
V
12 °C 10 km+ 28.000 ft 240° 240° 12 kt METAR EHKD 130255Z AUTO 24012KT 200V270 9999 OVC280 12/10 Q1024 BLU
04:25
V
12 °C 10 km+ 28.000 ft 240° 240° 13 kt METAR EHKD 130225Z AUTO 24013KT 9999 OVC280 12/10 Q1024 BLU
03:55
V
12 °C 10 km+ 28.000 ft 240° 240° 13 kt METAR EHKD 130155Z AUTO 24013KT 9999 OVC280 12/10 Q1024 BLU
03:25
V
12 °C 10 km+ 28.000 ft 240° 240° 14 kt METAR EHKD 130125Z AUTO 24014KT 210V270 9999 OVC280 12/10 Q1024 BLU
02:55
V
12 °C 10 km+ 27.000 ft 230° 230° 10 kt METAR EHKD 130055Z AUTO 23010KT 200V260 9999 OVC270 12/10 Q1024 BLU
02:25
V
12 °C 10 km+ 27.000 ft 230° 230° 11 kt METAR EHKD 130025Z AUTO 23011KT 9999 OVC270 12/10 Q1024 BLU
01:55
V
12 °C 10 km+ 26.000 ft 230° 230° 11 kt METAR EHKD 122355Z AUTO 23011KT 190V250 9999 OVC260 12/10 Q1024 BLU
01:25
V
12 °C 10 km+ 28.000 ft 220° 220° 13 kt METAR EHKD 122325Z AUTO 22013KT 190V250 9999 OVC280 12/10 Q1024 BLU
00:55
V
12 °C 10 km+ 30.000 ft 220° 220° 13 kt METAR EHKD 122255Z AUTO 22013KT 190V250 9999 OVC300 12/10 Q1025 BLU
00:25
V
13 °C 10 km+ 25.000 ft 220° 220° 15 kt METAR EHKD 122225Z AUTO 22015KT 200V260 9999 OVC250 13/10 Q1025 BLU

12 aprile 2024

Tempo Codice Tempo meteorologico Temp. Vista Base nuvolosa Vento METAR/SPECI
23:55
V
13 °C 10 km+ 26.000 ft 220° 220° 16 kt METAR EHKD 122155Z AUTO 22016KT 9999 OVC260 13/10 Q1025 BLU
23:25
V
13 °C 10 km+ 26.000 ft 220° 220° 16 kt METAR EHKD 122125Z AUTO 22016KT 9999 OVC260 13/10 Q1025 BLU
22:55
V
13 °C 10 km+ 27.000 ft 230° 230° 15 kt METAR EHKD 122055Z AUTO 23015KT 9999 OVC270 13/10 Q1025 BLU
22:25
V
13 °C 10 km+ 21.000 ft 220° 220° 15 kt METAR EHKD 122025Z AUTO 22015KT 190V250 9999 OVC210 13/10 Q1025 BLU
21:55
V
12 °C 10 km+ 21.000 ft 220° 220° 13 kt METAR EHKD 121955Z AUTO 22013KT 9999 OVC210 12/10 Q1025 BLU
21:25
V
12 °C 10 km+ 21.000 ft 220° 220° 13 kt METAR EHKD 121925Z AUTO 22013KT 190V250 9999 OVC210 12/10 Q1025 BLU
21:08
V
12 °C 10 km+ 21.000 ft 220° 220° 13 kt METAR EHKD 121908Z AUTO 22013KT 180V250 9999 OVC210 12/10 Q1025 BLU
20:55
V
12 °C 10 km+ 21.000 ft 220° 220° 14 kt METAR EHKD 121855Z AUTO 22014KT 9999 OVC210 12/10 Q1026 BLU NOSIG
20:25
V
12 °C 10 km+ 22.000 ft 220° 220° 13 kt METAR EHKD 121825Z AUTO 22013KT 180V260 9999 OVC220 12/10 Q1026 BLU NOSIG
19:55
V
13 °C 10 km+ 21.000 ft 220° 220° 14 kt METAR EHKD 121755Z AUTO 22014KT 190V250 9999 OVC210 13/10 Q1026 BLU NOSIG
19:25
V
13 °C 10 km+ 21.000 ft 220° 220° 14 kt METAR EHKD 121725Z AUTO 22014KT 9999 OVC210 13/10 Q1026 BLU NOSIG
18:55
V
13 °C 10 km+ 21.000 ft 220° 220° 15 kt METAR EHKD 121655Z AUTO 22015KT 190V250 9999 OVC210 13/10 Q1026 BLU NOSIG
18:25
V
13 °C 10 km+ 20.000 ft 220° 220° 14 kt METAR EHKD 121625Z AUTO 22014KT 190V250 9999 OVC200 13/10 Q1026 BLU NOSIG
17:55
V
13 °C 10 km+ 14.000 ft 220° 220° 16 kt METAR EHKD 121555Z AUTO 22016KT 190V250 9999 OVC140 13/11 Q1027 BLU NOSIG
17:25
V
13 °C 10 km+ 14.000 ft 220° 220° 15 kt METAR EHKD 121525Z AUTO 22015KT 9999 OVC140/// 13/10 Q1027 BLU NOSIG
16:55
V
13 °C 10 km+ 14.000 ft 230° 230° 15 kt METAR EHKD 121455Z AUTO 23015KT 200V260 9999 OVC140 13/10 Q1027 BLU NOSIG
16:25
V
14 °C 10 km+ 20.000 ft 230° 230° 16 kt METAR EHKD 121425Z AUTO 23016KT 190V250 9999 OVC200 14/10 Q1027 BLU NOSIG
15:55
V
14 °C 10 km+ 16.000 ft 230° 230° 16 kt METAR EHKD 121355Z AUTO 23016KT 9999 OVC160 14/10 Q1027 BLU NOSIG
15:25
V
14 °C 10 km+ 26.000 ft 240° 240° 17 kt METAR EHKD 121325Z AUTO 24017KT 200V270 9999 OVC260 14/10 Q1028 BLU NOSIG
14:55
V
13 °C 10 km+ 24.000 ft 230° 230° 17 kt METAR EHKD 121255Z AUTO 23017KT 200V260 9999 BKN240 OVC340 13/10 Q1028 BLU NOSIG
14:25
V
14 °C 10 km+ 27.000 ft 240° 240° 18 kt METAR EHKD 121225Z AUTO 24018KT 200V260 9999 BKN270 OVC350 14/10 Q1028 BLU NOSIG
13:55
V
14 °C 10 km+ 26.000 ft 230° 230° 18 kt METAR EHKD 121155Z AUTO 23018KT 200V260 9999 OVC260 14/10 Q1028 BLU NOSIG
13:25
V
14 °C 10 km+ 29.000 ft 230° 230° 18 kt METAR EHKD 121125Z AUTO 23018KT 200V260 9999 BKN290 BKN350 14/10 Q1028 BLU NOSIG
12:55
V
14 °C 10 km+ 28.000 ft 240° 240° 19 kt METAR EHKD 121055Z AUTO 24019KT 210V270 9999 BKN280 BKN350 14/10 Q1028 BLU NOSIG
12:25
V
13 °C 10 km+ 27.000 ft 230° 230° 18 kt METAR EHKD 121025Z AUTO 23018KT 210V280 9999 BKN270 OVC350 13/10 Q1028 BLU NOSIG
11:55
V
13 °C 10 km+ 17.000 ft 230° 230° 17 kt METAR EHKD 120955Z AUTO 23017KT 200V270 9999 OVC170 13/10 Q1028 BLU NOSIG
11:25
V
13 °C 10 km+ 17.000 ft 230° 230° 17 kt METAR EHKD 120925Z AUTO 23017KT 200V260 9999 BKN170 OVC270 13/10 Q1028 BLU NOSIG
10:55
V
13 °C 10 km+ 28.000 ft 230° 230° 18 kt METAR EHKD 120855Z AUTO 23018KT 9999 SCT100 BKN280 13/10 Q1027 BLU NOSIG
10:25
V
13 °C 10 km+ 18.000 ft 220° 220° 18 kt METAR EHKD 120825Z AUTO 22018KT 190V250 9999 FEW100 BKN180 OVC280 13/10 Q1027 BLU NOSIG
09:55
V
13 °C 10 km+ 10.000 ft 220° 220° 17 kt METAR EHKD 120755Z AUTO 22017KT 190V250 9999 BKN100 BKN170 BKN320 13/10 Q1028 BLU NOSIG
09:25
V
13 °C 10 km+ 28.000 ft 220° 220° 18 kt METAR EHKD 120725Z AUTO 22018KT 9999 SCT190 OVC280 13/10 Q1027 BLU NOSIG
08:55
V
12 °C 10 km+ 16.000 ft 220° 220° 15 kt METAR EHKD 120655Z AUTO 22015KT 180V250 9999 OVC160 12/10 Q1027 BLU NOSIG
08:25
V
12 °C 10 km+ 17.000 ft 210° 210° 15 kt METAR EHKD 120625Z AUTO 21015KT 9999 FEW056 SCT061 OVC170 12/10 Q1027 BLU NOSIG
08:06
V
12 °C 10 km+ 17.000 ft 210° 210° 15 kt METAR EHKD 120606Z AUTO 21015KT 9999 SCT052 OVC170 12/11 Q1027 BLU NOSIG
07:55
V
12 °C 9 km 4.600 ft 220° 220° 14 kt METAR EHKD 120555Z AUTO 22014KT 190V250 9000 BR FEW039 BKN046 OVC050 12/11 Q1027 BLU NOSIG
07:39
M
12 °C 7 km 5.000 ft 220° 220° 13 kt METAR EHKD 120539Z AUTO 22013KT 190V250 7000 BR SCT045 BKN050 OVC170 12/11 Q1027 WHT NOSIG
07:35
V
12 °C 8 km 4.400 ft 220° 220° 14 kt METAR EHKD 120535Z AUTO 22014KT 190V250 8000 BR BKN044 OVC160 12/11 Q1027 BLU NOSIG
07:31
M
12 °C 7 km 4.400 ft 220° 220° 14 kt METAR EHKD 120531Z AUTO 22014KT 7000 BR BKN044 BKN048 OVC170 12/11 Q1027 WHT NOSIG
07:25
V
12 °C 8 km 17.000 ft 220° 220° 14 kt METAR EHKD 120525Z AUTO 22014KT 8000 BR OVC170 12/11 Q1027 BLU BECMG NSW
07:19
M
11 °C 7 km 18.000 ft 210° 210° 13 kt METAR EHKD 120519Z AUTO 21013KT 180V240 7000 BR FEW004 OVC180 11/11 Q1027 WHT BECMG NSW
07:10
I
11 °C 8 km 800 ft 210° 210° 13 kt METAR EHKD 120510Z AUTO 21013KT 180V240 8000 BR FEW003 SCT005 BKN008 11/11 Q1027 YLO BECMG NSW
07:11
M
11 °C 7 km 19.000 ft 210° 210° 14 kt METAR EHKD 120511Z AUTO 21014KT 180V240 7000 BR FEW003 SCT006 OVC190 11/11 Q1027 YLO BECMG NSW
06:59
L
11 °C 8 km 300 ft 220° 220° 15 kt METAR EHKD 120459Z AUTO 22015KT 190V250 8000 BR BKN003 BKN004 OVC007 11/11 Q1027 YLO BECMG SCT004 RMK LVP A
06:55
L
11 °C 5 km 300 ft 220° 220° 14 kt METAR EHKD 120455Z AUTO 22014KT 190V250 5000 BR SCT002 BKN003 OVC004 11/11 Q1027 AMB BECMG 3000 BKN003
06:44
L
11 °C 4,9 km 200 ft 210° 210° 14 kt METAR EHKD 120444Z AUTO 21014KT 4900 BR SCT001 OVC002 11/11 Q1027 RED BECMG 3000 BKN003 RMK LVP A
06:31
L
11 °C 1,4 km 100 ft 220° 220° 16 kt METAR EHKD 120431Z AUTO 22016KT 180V250 1400 R21/2200U BR OVC001 11/11 Q1027 RED BECMG 3000 BKN003 RMK LVP A
06:25
L
11 °C 1,1 km 100 ft 220° 220° 14 kt METAR EHKD 120425Z AUTO 22014KT 190V250 1100 BR OVC001 11/11 Q1028 RED BECMG 3000 BKN003
06:07
L
11 °C 1,9 km 100 ft 220° 220° 15 kt METAR EHKD 120407Z AUTO 22015KT 1900 BR OVC001 11/11 Q1028 RED
05:55
L
11 °C 1,7 km 100 ft 220° 220° 18 kt METAR EHKD 120355Z AUTO 22018KT 190V250 1700 BR OVC001 11/11 Q1028 RED
05:34
L
11 °C 1,3 km 100 ft 220° 220° 17 kt METAR EHKD 120334Z AUTO 22017KT 180V250 1300 BR OVC001 11/11 Q1028 RED
05:28
L
11 °C 2,4 km 100 ft 220° 220° 17 kt METAR EHKD 120328Z AUTO 22017KT 180V250 2400 BR OVC001 11/11 Q1028 RED
05:25
L
11 °C 2,6 km 200 ft 220° 220° 16 kt METAR EHKD 120325Z AUTO 22016KT 190V250 2600 BR OVC002 11/11 Q1028 AMB
05:11
L
11 °C 2,7 km 200 ft 220° 220° 14 kt METAR EHKD 120311Z AUTO 22014KT 200V260 2700 BR BKN002 OVC003 11/11 Q1028 AMB
05:07
L
11 °C 2,9 km 100 ft 220° 220° 14 kt METAR EHKD 120307Z AUTO 22014KT 190V250 2900 BR BKN001 OVC003 11/11 Q1028 RED
04:55
L
11 °C 2,2 km 100 ft 220° 220° 15 kt METAR EHKD 120255Z AUTO 22015KT 190V250 2200 BR OVC001 11/11 Q1028 RED
04:28
L
11 °C 1,4 km 100 ft 220° 220° 14 kt METAR EHKD 120228Z AUTO 22014KT 190V250 1400 BR OVC001 11/11 Q1028 RED
04:25
L
11 °C 1,9 km 100 ft 220° 220° 14 kt METAR EHKD 120225Z AUTO 22014KT 190V250 1900 BR OVC001 11/11 Q1028 RED
04:08
L
11 °C 2,6 km 100 ft 210° 210° 16 kt METAR EHKD 120208Z AUTO 21016KT 180V250 2600 BR OVC001 11/11 Q1028 RED
03:55
L
11 °C 3,9 km 200 ft 210° 210° 16 kt METAR EHKD 120155Z AUTO 21016KT 170V240 3900 BR OVC002 11/11 Q1028 AMB
03:33
L
11 °C 5 km 300 ft 220° 220° 14 kt METAR EHKD 120133Z AUTO 22014KT 180V250 5000 BR OVC003 11/11 Q1028 YLO
03:25
L
11 °C 4,4 km 200 ft 220° 220° 14 kt METAR EHKD 120125Z AUTO 22014KT 190V250 4400 BR OVC002 11/11 Q1028 AMB
03:11
L
11 °C 4,3 km 200 ft 220° 220° 14 kt METAR EHKD 120111Z AUTO 22014KT 180V250 4300 BR OVC002 11/11 Q1029 AMB
03:07
L
11 °C 4,4 km 300 ft 220° 220° 15 kt METAR EHKD 120107Z AUTO 22015KT 190V250 4400 BR OVC003 11/11 Q1029 YLO
02:57
L
11 °C 7 km 300 ft 220° 220° 16 kt METAR EHKD 120057Z AUTO 22016KT 190V250 7000 BR OVC003 11/11 Q1029 YLO
02:25
L
12 °C 3,1 km 200 ft 210° 210° 15 kt METAR EHKD 120025Z AUTO 21015KT 190V250 3100 BR OVC002 12/11 Q1029 AMB
01:57
L
12 °C 3,1 km 200 ft 220° 220° 14 kt METAR EHKD 112357Z AUTO 22014KT 190V250 3100 BR OVC002 12/11 Q1029 AMB
01:32
L
12 °C 6 km 300 ft 220° 220° 13 kt METAR EHKD 112332Z AUTO 22013KT 190V250 6000 BR OVC003 12/11 Q1030 YLO
01:25
L
11 °C 4,3 km 200 ft 220° 220° 13 kt METAR EHKD 112325Z AUTO 22013KT 180V250 4300 BR BKN002 OVC003 11/11 Q1030 AMB
00:55
L
11 °C 3 km 100 ft 220° 220° 14 kt METAR EHKD 112255Z AUTO 22014KT 190V260 3000 BR OVC001 11/11 Q1030 RED
00:40
L
11 °C 4,7 km 200 ft 220° 220° 12 kt METAR EHKD 112240Z AUTO 22012KT 190V250 4700 BR OVC002 11/11 Q1030 AMB
00:35
L
11 °C 6 km 200 ft 210° 210° 13 kt METAR EHKD 112235Z AUTO 21013KT 180V250 6000 BR OVC002 11/11 Q1030 AMB
00:31
L
12 °C 7 km 300 ft 210° 210° 13 kt METAR EHKD 112231Z AUTO 21013KT 180V240 7000 BR OVC003 12/11 Q1030 YLO
00:25
L
12 °C 9 km 400 ft 210° 210° 11 kt METAR EHKD 112225Z AUTO 21011KT 180V240 9000 BR OVC004 12/11 Q1030 YLO

11 aprile 2024

Tempo Codice Tempo meteorologico Temp. Vista Base nuvolosa Vento METAR/SPECI
23:55
L
12 °C 10 km+ 400 ft 220° 220° 12 kt METAR EHKD 112155Z AUTO 22012KT 190V250 9999 OVC004 12/11 Q1030 YLO
23:35
I
12 °C 10 km+ 500 ft 200° 200° 10 kt METAR EHKD 112135Z AUTO 20010KT 170V230 9999 BKN005 BKN006 BKN029 12/11 Q1030 YLO
23:31
I
12 °C 10 km+ 700 ft 200° 200° 10 kt METAR EHKD 112131Z AUTO 20010KT 170V240 9999 SCT005 BKN007 BKN029 12/11 Q1030 YLO
23:25
I
12 °C 10 km+ 700 ft 200° 200° 9 kt METAR EHKD 112125Z AUTO 20009KT 9999 FEW006 BKN007 BKN008 12/11 Q1030 GRN
23:18
M
11 °C 10 km+ 3.000 ft 200° 200° 9 kt METAR EHKD 112118Z AUTO 20009KT 9999 FEW006 SCT008 OVC030 11/11 Q1030 GRN
23:02
V
12 °C 9 km 3.100 ft 200° 200° 10 kt METAR EHKD 112102Z AUTO 20010KT 9000 BR FEW016 OVC031 12/11 Q1030 BLU
22:58
M
12 °C 9 km 1.500 ft 200° 200° 11 kt METAR EHKD 112058Z AUTO 20011KT 9000 BR FEW004 BKN015 OVC031 12/11 Q1030 WHT
22:44
M
12 °C 10 km+ 1.400 ft 200° 200° 11 kt METAR EHKD 112044Z AUTO 20011KT 9999 OVC014 12/11 Q1030 GRN
22:40
M
12 °C 10 km+ 1.500 ft 200° 200° 12 kt METAR EHKD 112040Z AUTO 20012KT 9999 OVC015 12/11 Q1030 WHT
22:25
M
12 °C 10 km+ 1.500 ft 200° 200° 12 kt METAR EHKD 112025Z AUTO 20012KT 170V240 9999 BKN015 BKN270 12/11 Q1030 WHT
22:16
M
12 °C 10 km+ 1.500 ft 210° 210° 12 kt METAR EHKD 112016Z AUTO 21012KT 180V240 9999 OVC015 12/11 Q1030 WHT
21:55
M
12 °C 10 km+ 1.500 ft 200° 200° 10 kt METAR EHKD 111955Z AUTO 20010KT 9999 OVC015 12/11 Q1030 WHT NOSIG
21:31
M
12 °C 10 km+ 1.600 ft 200° 200° 11 kt METAR EHKD 111931Z AUTO 20011KT 9999 BKN016 OVC240 12/11 Q1030 WHT NOSIG
21:25
V
12 °C 10 km+ 24.000 ft 200° 200° 10 kt METAR EHKD 111925Z AUTO 20010KT 9999 OVC240 12/11 Q1030 BLU NOSIG
20:55
V
12 °C 10 km+ 25.000 ft 200° 200° 7 kt METAR EHKD 111855Z AUTO 20007KT 9999 OVC250 12/11 Q1030 BLU NOSIG
20:25
V
12 °C 10 km+ 24.000 ft 220° 220° 9 kt METAR EHKD 111825Z AUTO 22009KT 9999 OVC240 12/11 Q1030 BLU NOSIG
19:55
V
12 °C 10 km+ 32.000 ft 220° 220° 11 kt METAR EHKD 111755Z AUTO 22011KT 190V250 9999 OVC320 12/11 Q1030 BLU NOSIG
19:25
V
13 °C 10 km+ 34.000 ft 220° 220° 13 kt METAR EHKD 111725Z AUTO 22013KT 190V250 9999 FEW033 OVC340 13/11 Q1030 BLU NOSIG
18:55
V
13 °C 10 km+ 3.100 ft 220° 220° 13 kt METAR EHKD 111655Z AUTO 22013KT 190V260 9999 OVC031 13/11 Q1030 BLU NOSIG
18:25
V
13 °C 10 km+ 3.300 ft 230° 230° 14 kt METAR EHKD 111625Z AUTO 23014KT 9999 OVC033 13/11 Q1030 BLU NOSIG
17:55
V
14 °C 10 km+ 3.300 ft 220° 220° 13 kt METAR EHKD 111555Z AUTO 22013KT 190V250 9999 OVC033 14/11 Q1030 BLU NOSIG
17:25
V
14 °C 10 km+ 3.200 ft 220° 220° 13 kt METAR EHKD 111525Z AUTO 22013KT 190V250 9999 BKN032 BKN330 14/12 Q1030 BLU NOSIG
16:55
V
13 °C 10 km+ 3.100 ft 220° 220° 14 kt METAR EHKD 111455Z AUTO 22014KT 9999 OVC031 13/11 Q1030 BLU NOSIG
16:25
M
14 °C 10 km+ 3.000 ft 220° 220° 15 kt METAR EHKD 111425Z AUTO 22015KT 200V260 9999 OVC030 14/12 Q1030 BLU NOSIG
15:55
M
14 °C 10 km+ 2.900 ft 220° 220° 14 kt METAR EHKD 111355Z AUTO 22014KT 9999 OVC029 14/12 Q1030 BLU NOSIG
15:25
M
14 °C 10 km+ 2.800 ft 220° 220° 13 kt METAR EHKD 111325Z AUTO 22013KT 190V260 9999 OVC028 14/11 Q1029 BLU NOSIG
14:55
M
14 °C 10 km+ 2.700 ft 220° 220° 13 kt METAR EHKD 111255Z AUTO 22013KT 9999 OVC027 14/12 Q1029 BLU NOSIG
14:25
M
14 °C 10 km+ 2.900 ft 220° 220° 13 kt METAR EHKD 111225Z AUTO 22013KT 9999 OVC029 14/12 Q1029 BLU NOSIG
13:55
V
15 °C 10 km+ - 230° 230° 15 kt METAR EHKD 111155Z AUTO 23015KT 200V260 9999 SCT029 SCT300 15/12 Q1029 BLU NOSIG
13:25
V
14 °C 10 km+ - 220° 220° 13 kt METAR EHKD 111125Z AUTO 22013KT 190V260 9999 SCT028 SCT330 14/12 Q1029 BLU NOSIG
12:55
V
14 °C 10 km+ - 230° 230° 15 kt METAR EHKD 111055Z AUTO 23015KT 190V250 9999 SCT025 14/12 Q1029 BLU NOSIG
12:25
V
14 °C 10 km+ - 230° 230° 15 kt METAR EHKD 111025Z AUTO 23015KT 200V260 9999 NCD 14/12 Q1028 BLU NOSIG
12:12
V
14 °C 10 km+ - 230° 230° 16 kt METAR EHKD 111012Z AUTO 23016KT 9999 NCD 14/12 Q1028 BLU NOSIG
11:57
V
14 °C 10 km+ - 230° 230° 15 kt METAR EHKD 110957Z AUTO 23015KT 9999 FEW019 14/12 Q1028 BLU TEMPO BKN008
11:25
M
13 °C 10 km+ 1.700 ft 230° 230° 16 kt METAR EHKD 110925Z AUTO 23016KT 9999 SCT004 SCT006 OVC017 13/12 Q1028 YLO TEMPO SCT004 BKN007
10:55
L
12 °C 9 km 400 ft 230° 230° 15 kt METAR EHKD 110855Z AUTO 23015KT 9000 BR BKN004 OVC014 12/11 Q1027 YLO BECMG FEW004 SCT015
10:44
L
12 °C 10 km+ 400 ft 230° 230° 15 kt METAR EHKD 110844Z AUTO 23015KT 9999 BKN004 OVC013 12/11 Q1027 YLO BECMG FEW004 SCT015
10:25
L
12 °C 10 km+ 400 ft 230° 230° 16 kt METAR EHKD 110825Z AUTO 23016KT 9999 BKN004 OVC015 12/11 Q1027 YLO BECMG SCT007 BKN015
09:55
L
12 °C 10 km+ 400 ft 220° 220° 16 kt METAR EHKD 110755Z AUTO 22016KT 190V250 9999 BKN004 OVC015 12/11 Q1027 YLO NOSIG
09:25
L
12 °C 10 km+ 400 ft 220° 220° 17 kt METAR EHKD 110725Z AUTO 22017KT 9999 OVC004 12/11 Q1026 YLO NOSIG
08:55
L
11 °C 10 km+ 400 ft 220° 220° 15 kt METAR EHKD 110655Z AUTO 22015KT 190V250 9999 OVC004 11/11 Q1026 YLO NOSIG
08:25
L
11 °C 8 km 300 ft 220° 220° 17 kt METAR EHKD 110625Z AUTO 22017KT 8000 BR OVC003 11/11 Q1026 YLO NOSIG
08:01
L
11 °C 4,4 km 300 ft 220° 220° 17 kt METAR EHKD 110601Z AUTO 22017KT 190V250 4400 -SHRA BKN003 FEW015CB 11/11 Q1026 YLO NOSIG
07:57
L
11 °C 3,6 km 300 ft 220° 220° 18 kt METAR EHKD 110557Z AUTO 22018KT 190V250 3600 R21/P3000N -RA BKN003 FEW015CB 11/11 Q1026 YLO NOSIG
Segnala modifiche